AirNav   MODERNIZE NOT PRIVATIZE ATC
 
 1052 users online  

83XS Ball Park Heliport
Houston, Texas, USA

GOING TO HOUSTON?


FAA INFORMATION EFFECTIVE 20 JULY 2017

Location

FAA Identifier: 83XS
Lat/Long: 29-40-28.8350N / 095-37-05.8040W
29-40.480583N / 095-37.096733W
29.6746764 / -95.6182789
(estimated)
Elevation: 90 ft. / 27 m (estimated)
Variation: 06E (1985)
From city: 14 miles SW of HOUSTON, TX
Time zone: UTC -5 (UTC -6 during Standard Time)
Zip code: 77083

Heliport Operations

Heliport use: Private use. Permission required prior to landing
Activation date: 05/1979
Control tower: no
ARTCC: HOUSTON CENTER
FSS: MONTGOMERY COUNTY FLIGHT SERVICE STATION
FOR FP FILING CALL CXO FSS 1-800-833-5602.
Attendance: 0700-1700
Wind indicator: no
Segmented circle: no

Heliport Communications

WX ASOS at SGR (4 nm SW): 118.125 (281-242-7605)
WX AWOS-3 at AXH (13 nm SE): 123.625 (281-431-6572)
WX AWOS-3 at TME (17 nm NW): 119.525 (281-945-5451)
WX ASOS at HOU (18 nm E): PHONE 713-847-1462

Nearby radio navigation aids

VOR radial/distance  VOR name  Freq  Var
HUBr269/17.8HOBBY VOR/DME117.1005E
IAHr215/22.1HUMBLE VORTAC116.6005E
ELAr081/36.4EAGLE LAKE VOR/DME116.4008E

 
NDB name  Hdg/Dist  Freq  Var  ID
NIXIN223/28.432605EBVP -... ...- .--.
SANJAC266/28.634705EJPA .--- .--. .-
WHARTON042/37.624506EARM .- .-. --

Heliport Services

Runway Information

Helipad H1

Dimensions: 25 x 25 ft. / 8 x 8 m
LNDG & TKOFF 180' X 120'.
Surface: concrete
Traffic pattern: leftleft

Heliport Ownership and Management from official FAA records

Ownership: Privately-owned
Owner: PARK & SMYERS CONST INC
13301 OLD RICHMOND ROAD
HOUSTON, TX 77099
Phone 713-933-9870
Manager: PARK & SMYERS CONST INC
13301 OLD RICHMOND ROAD
HOUSTON, TX 77099
Phone 713-933-9870

Heliport Operational Statistics

Aircraft based on the field: 1
Helicopters: 1
    

Additional Remarks

A52-H1 PLINES 100' TO NORTH OF PAD.

Instrument Procedures

There are no published instrument procedures at 83XS.

Some nearby airports with instrument procedures:

KSGR - Sugar Land Regional Airport (4 nm SW)
KIWS - West Houston Airport (9 nm N)
KAXH - Houston Southwest Airport (13 nm SE)
KTME - Houston Executive Airport (17 nm NW)
KHOU - William P Hobby Airport (18 nm E)
 
Loc | Ops | Rwys | IFR | FBO | Links
Com | Nav | Svcs | Stats | Notes


 
Area around 83XS (Ball Park Heliport)
 
Road maps at: MapQuest Bing Google
 
Aerial photo
No photo
 
Sectional chart

 
Airport distance calculator
Flying to Ball Park Heliport? Find the distance to fly.

From to 83XS

Sunrise and sunset
Times for 22-Jul-2017
 Local
(UTC-5)
 Zulu
(UTC)
Morning civil twilight06:1111:11
Sunrise06:3711:37
Sunset20:2101:21
Evening civil twilight20:4701:47

Current date and time
Zulu (UTC)  22-Jul-2017 14:47:44
Local (UTC-5)  22-Jul-2017 09:47:44
 
METAR
KSGR 
4nm SW 
221353Z 22004KT 10SM CLR 30/26 A2999 RMK AO2 SLP156 T03000256
KAXH 
13nm SE 
221435Z AUTO 25003KT 10SM SCT018 SCT024 30/26 A3002 RMK AO2 LTG DSNT E THRU S T02970255
KTME 
17nm NW 
221435Z AUTO 23006KT 9SM CLR 30/25 A3002 RMK AO2
KHOU 
18nm E 
221353Z 21005KT 10SM FEW025 FEW150 SCT250 31/25 A3000 RMK AO2 SLP161 T03060250
TAF
KSGR 
4nm SW 
221140Z 2212/2312 21003KT P6SM SKC FM221700 19007KT P6SM VCTS SCT040CB SCT250 TEMPO 2219/2222 5SM TSRA BKN030CB FM222200 16009KT P6SM VCSH BKN050 BKN250 FM230300 16005KT P6SM FEW020 SCT150 BKN200
KHOU 
18nm E 
221140Z 2212/2312 19003KT P6SM FEW020 SCT250 FM221600 19007KT P6SM VCTS SCT040CB SCT250 TEMPO 2218/2221 5SM TSRA BKN030CB FM222200 16008KT P6SM VCSH BKN050 BKN250 FM230300 18005KT P6SM FEW020 SCT150 BKN200
NOTAMs
Click for the latest NOTAMs
NOTAMs are issued by the DoD/FAA and will open in a separate window not controlled by AirNav.

 

 
 

Would you like to see your business listed on this page?

 If your business provides an interesting product or service to pilots, flight crews, aircraft, or users of the Ball Park Heliport, you should consider listing it here.  To start the listing process, click on the button below
 
Add a business
 

Other Pages about Ball Park Heliport

Update a link
 
Copyright © AirNav, LLC. All rights reserved. Privacy Policy  Contact